Time;durP1;ratioP1;P1;durP2;ratioP2;P2;SDS_P1;SDS_P2;PMS_P1;PMS_P2;Temp;Humidity;BMP_temperature;BMP_pressure;BME280_temperature;BME280_humidity;BME280_pressure;Samples;Min_cycle;Max_cycle;Signal;HPM_P1;HPM_P2
2023/02/04 00:05:30;;;;;;;12.77;8.67;;;-0.60;99.90;;;;;;4602272;30;20328;-81
2023/02/04 00:35:36;;;;;;;16.60;10.67;;;-0.50;99.90;;;;;;4637122;30;20308;-85
2023/02/04 01:01:21;;;;;;;19.63;11.70;;;-0.60;99.90;;;;;;4543884;30;20275;-83
2023/02/04 01:26:46;;;;;;;11.87;7.33;;;-0.60;99.90;;;;;;4751527;29;20272;-84
2023/02/04 01:56:38;;;;;;;12.73;8.53;;;-0.50;99.90;;;;;;4563380;30;20736;-82
2023/02/04 02:17:19;;;;;;;10.43;7.57;;;-0.50;99.90;;;;;;4724445;29;20274;-83
2023/02/04 02:42:51;;;;;;;13.47;9.37;;;-0.50;99.90;;;;;;4734052;29;20245;-85
2023/02/04 03:23:26;;;;;;;8.90;5.83;;;-0.40;99.90;;;;;;4778018;29;20226;-83
2023/02/04 03:43:46;;;;;;;10.33;7.13;;;-0.40;99.90;;;;;;4648181;30;20227;-86
2023/02/04 04:09:10;;;;;;;9.50;6.77;;;-0.70;99.90;;;;;;4588103;30;20289;-83
2023/02/04 04:54:33;;;;;;;11.37;7.83;;;-0.90;99.90;;;;;;4654121;30;20204;-83
2023/02/04 05:25:10;;;;;;;6.83;4.67;;;-0.60;99.90;;;;;;4650327;30;20253;-81
2023/02/04 05:54:58;;;;;;;11.53;6.60;;;-0.40;99.90;;;;;;4570882;30;20857;-84
2023/02/04 06:15:54;;;;;;;8.40;4.87;;;-0.40;99.90;;;;;;4627623;30;20486;-82
2023/02/04 06:40:43;;;;;;;7.47;5.50;;;-0.60;99.90;;;;;;4522204;30;20816;-81
2023/02/04 07:06:29;;;;;;;9.23;5.60;;;-1.10;98.20;;;;;;4598247;30;20231;-83
2023/02/04 07:26:31;;;;;;;10.77;4.87;;;-1.10;97.40;;;;;;4532849;30;20570;-82
2023/02/04 08:06:44;;;;;;;4.23;2.70;;;-1.00;92.20;;;;;;4686515;29;20613;-81
2023/02/04 08:27:39;;;;;;;1.77;1.67;;;-0.90;90.40;;;;;;4573967;30;20669;-83
2023/02/04 08:58:06;;;;;;;4.17;2.47;;;-0.90;90.30;;;;;;4644419;30;20263;-84
2023/02/04 09:22:53;;;;;;;2.93;2.30;;;-0.70;81.90;;;;;;4574632;30;20528;-83
2023/02/04 09:48:39;;;;;;;3.40;1.90;;;-0.50;81.20;;;;;;4630965;30;20303;-84
2023/02/04 10:29:26;;;;;;;2.30;1.70;;;-0.20;80.70;;;;;;4771614;29;20211;-82
2023/02/04 10:54:35;;;;;;;3.90;2.67;;;0.50;80.90;;;;;;4718874;29;20199;-80
2023/02/04 11:19:52;;;;;;;2.63;2.07;;;0.70;80.50;;;;;;4545828;30;21139;-85
2023/02/04 12:00:43;;;;;;;4.47;2.70;;;0.90;80.20;;;;;;4718054;29;20334;-83
2023/02/04 12:05:04;;;;;;;4.47;3.20;;;0.90;81.40;;;;;;4624661;29;20895;-82
2023/02/04 12:45:48;;;;;;;3.63;2.53;;;0.60;80.80;;;;;;4566526;30;20763;-84
2023/02/04 13:16:07;;;;;;;3.77;2.67;;;0.60;79.80;;;;;;4591843;30;20344;-82
2023/02/04 13:36:47;;;;;;;2.83;2.20;;;0.60;77.90;;;;;;4704939;29;20290;-83
2023/02/04 14:07:12;;;;;;;1.73;1.23;;;0.30;74.40;;;;;;4633971;30;20616;-83
2023/02/04 15:28:15;;;;;;;3.57;2.50;;;-1.10;78.50;;;;;;4582874;30;20201;-84
2023/02/04 15:53:46;;;;;;;3.20;2.63;;;-1.10;78.20;;;;;;4527089;30;20236;-84
2023/02/04 16:38:54;;;;;;;4.90;3.10;;;-1.20;78.30;;;;;;4538368;30;20489;-83
2023/02/04 16:59:27;;;;;;;3.13;2.70;;;-1.50;79.00;;;;;;4605815;30;21078;-84
2023/02/04 17:19:49;;;;;;;6.40;4.03;;;-1.60;79.70;;;;;;4610457;30;20212;-85
2023/02/04 17:44:52;;;;;;;7.30;4.17;;;-1.40;80.40;;;;;;4558716;30;20546;-84
2023/02/04 18:10:17;;;;;;;7.97;4.97;;;-1.60;80.00;;;;;;4539647;30;20249;-83
2023/02/04 18:30:33;;;;;;;7.30;4.57;;;-1.20;79.50;;;;;;4569269;30;20449;-84
2023/02/04 18:40:49;;;;;;;8.87;5.40;;;-1.30;79.90;;;;;;5982844;23;20189;-83
2023/02/04 19:05:51;;;;;;;9.37;6.77;;;-1.40;80.90;;;;;;4614861;30;20477;-84
2023/02/04 19:36:27;;;;;;;12.93;7.47;;;-1.50;82.70;;;;;;4613427;30;20896;-81
2023/02/04 20:01:33;;;;;;;13.40;8.33;;;-1.80;85.50;;;;;;4665771;30;20402;-83
2023/02/04 20:16:40;;;;;;;12.10;6.07;;;-1.70;84.40;;;;;;4744794;29;20389;-83
2023/02/04 21:07:33;;;;;;;16.20;8.67;;;-2.20;87.70;;;;;;4697633;30;20639;-85
2023/02/04 21:33:14;;;;;;;21.77;10.50;;;-2.80;89.70;;;;;;4766096;29;20221;-84
